CheckWX is a tool to help pilots better visualize weather data.  It is not intended as a substitute for an official pre-flight weather briefing.

17:45:46 UTC

KPIT METAR
Pittsburgh International Airport
Pittsburgh, Pennsylvania, USA
Current

55 mins ago

KPIT 231651Z 13003KT 10SM BKN150 OVC220 02/M07 A3024 RMK AO2 SLP263 T00171067
Observed
Jan-23 @ 16:51 UTC
Wind
  • 130° at 3 KTS
Visibility
10 SM
Flight Rules
VFR
Cloud Levels
  • Broken at 15,000' AGL
  • Overcast at 22,000' AGL
Temperature
C / 36°F
Dewpoint
-7°C / 19°F
Humidity
52%
Altimeter
30.24" Hg
Pressure
1024.02 hPa
Previous

2 hours ago

KPIT 231551Z 13004KT 10SM OVC170 00/M06 A3026 RMK AO2 SLP269 T00001056
Observed
Jan-23 @ 15:51 UTC
Wind
  • 130° at 4 KTS
Visibility
10 SM
Flight Rules
VFR
Cloud Levels
  • Overcast at 17,000' AGL
Temperature
C / 32°F
Dewpoint
-6°C / 21°F
Humidity
64%
Altimeter
30.26" Hg
Pressure
1024.72 hPa
Previous

3 hours ago

KPIT 231451Z 14003KT 10SM OVC180 M02/M07 A3026 RMK AO2 SLP270 T10221067 51003
Observed
Jan-23 @ 14:51 UTC
Wind
  • 140° at 3 KTS
Visibility
10 SM
Flight Rules
VFR
Cloud Levels
  • Overcast at 18,000' AGL
Temperature
-2°C / 28°F
Dewpoint
-7°C / 19°F
Humidity
69%
Altimeter
30.26" Hg
Pressure
1024.72 hPa